sensor_id;sensor_type;location;lat;lon;timestamp;temperature;humidity
23746;DHT22;12053;48.878;9.632;2023-08-07T09:06:54;12.90;99.90
23746;DHT22;12053;48.878;9.632;2023-08-07T09:09:21;12.60;99.90
23746;DHT22;12053;48.878;9.632;2023-08-07T09:11:50;12.60;99.90
23746;DHT22;12053;48.878;9.632;2023-08-07T09:14:22;12.80;99.90
23746;DHT22;12053;48.878;9.632;2023-08-07T09:16:49;13.00;99.90
23746;DHT22;12053;48.878;9.632;2023-08-07T09:19:17;12.80;99.90
23746;DHT22;12053;48.878;9.632;2023-08-07T09:21:43;12.70;99.90
23746;DHT22;12053;48.878;9.632;2023-08-07T09:24:10;12.90;99.90
23746;DHT22;12053;48.878;9.632;2023-08-07T09:26:39;13.00;99.90
23746;DHT22;12053;48.878;9.632;2023-08-07T09:29:08;12.90;99.90
23746;DHT22;12053;48.878;9.632;2023-08-07T09:31:37;13.10;99.90
23746;DHT22;12053;48.878;9.632;2023-08-07T09:34:04;13.20;99.90
23746;DHT22;12053;48.878;9.632;2023-08-07T09:36:31;13.40;99.90
23746;DHT22;12053;48.878;9.632;2023-08-07T09:39:02;13.40;99.90
23746;DHT22;12053;48.878;9.632;2023-08-07T09:41:30;13.70;99.90
23746;DHT22;12053;48.878;9.632;2023-08-07T09:43:57;13.40;99.90
23746;DHT22;12053;48.878;9.632;2023-08-07T09:46:27;13.80;99.90
23746;DHT22;12053;48.878;9.632;2023-08-07T09:48:57;14.20;99.90
23746;DHT22;12053;48.878;9.632;2023-08-07T09:51:25;13.90;99.90
23746;DHT22;12053;48.878;9.632;2023-08-07T09:53:52;13.70;99.90
23746;DHT22;12053;48.878;9.632;2023-08-07T09:56:18;14.00;99.90
23746;DHT22;12053;48.878;9.632;2023-08-07T09:58:48;14.00;99.90
23746;DHT22;12053;48.878;9.632;2023-08-07T10:01:16;14.90;99.90
23746;DHT22;12053;48.878;9.632;2023-08-07T10:03:43;16.00;99.90
23746;DHT22;12053;48.878;9.632;2023-08-07T10:06:12;15.40;99.90
23746;DHT22;12053;48.878;9.632;2023-08-07T10:08:39;15.30;99.90
23746;DHT22;12053;48.878;9.632;2023-08-07T10:11:08;15.20;99.90
23746;DHT22;12053;48.878;9.632;2023-08-07T10:13:37;15.80;99.90
23746;DHT22;12053;48.878;9.632;2023-08-07T10:16:06;15.70;99.90
23746;DHT22;12053;48.878;9.632;2023-08-07T10:18:33;14.70;99.90
23746;DHT22;12053;48.878;9.632;2023-08-07T10:21:01;14.50;99.90
23746;DHT22;12053;48.878;9.632;2023-08-07T10:23:28;14.70;99.90
23746;DHT22;12053;48.878;9.632;2023-08-07T10:25:56;15.00;99.90
23746;DHT22;12053;48.878;9.632;2023-08-07T10:28:24;15.70;99.90
23746;DHT22;12053;48.878;9.632;2023-08-07T10:30:55;15.70;99.90
23746;DHT22;12053;48.878;9.632;2023-08-07T10:33:23;15.70;99.90
23746;DHT22;12053;48.878;9.632;2023-08-07T10:35:52;15.70;99.90
23746;DHT22;12053;48.878;9.632;2023-08-07T10:38:22;15.30;99.90
23746;DHT22;12053;48.878;9.632;2023-08-07T10:43:26;15.60;99.90
23746;DHT22;12053;48.878;9.632;2023-08-07T10:46:04;15.80;99.90
23746;DHT22;12053;48.878;9.632;2023-08-07T10:48:38;15.90;99.90
23746;DHT22;12053;48.878;9.632;2023-08-07T10:51:06;15.80;99.90
23746;DHT22;12053;48.878;9.632;2023-08-07T10:53:37;15.70;99.90
23746;DHT22;12053;48.878;9.632;2023-08-07T10:56:08;16.10;99.90
23746;DHT22;12053;48.878;9.632;2023-08-07T10:58:38;16.10;99.90
23746;DHT22;12053;48.878;9.632;2023-08-07T11:03:59;16.40;99.90
23746;DHT22;12053;48.878;9.632;2023-08-07T11:06:31;16.00;99.90
23746;DHT22;12053;48.878;9.632;2023-08-07T11:08:59;15.60;99.90
23746;DHT22;12053;48.878;9.632;2023-08-07T11:11:34;15.80;99.90
23746;DHT22;12053;48.878;9.632;2023-08-07T11:14:10;16.70;99.90
23746;DHT22;12053;48.878;9.632;2023-08-07T11:16:37;16.60;99.90
23746;DHT22;12053;48.878;9.632;2023-08-07T11:19:04;16.20;99.90
23746;DHT22;12053;48.878;9.632;2023-08-07T11:21:32;16.10;99.90
23746;DHT22;12053;48.878;9.632;2023-08-07T11:24:01;15.60;99.90
23746;DHT22;12053;48.878;9.632;2023-08-07T11:26:28;15.50;99.90
23746;DHT22;12053;48.878;9.632;2023-08-07T11:28:55;15.20;99.90
23746;DHT22;12053;48.878;9.632;2023-08-07T11:31:23;15.10;99.90
23746;DHT22;12053;48.878;9.632;2023-08-07T11:33:52;14.60;99.90
23746;DHT22;12053;48.878;9.632;2023-08-07T11:36:19;14.50;99.90
23746;DHT22;12053;48.878;9.632;2023-08-07T11:38:46;14.20;99.90
23746;DHT22;12053;48.878;9.632;2023-08-07T11:41:15;14.10;99.90
23746;DHT22;12053;48.878;9.632;2023-08-07T11:43:42;13.90;99.90
23746;DHT22;12053;48.878;9.632;2023-08-07T11:46:12;14.00;99.90
23746;DHT22;12053;48.878;9.632;2023-08-07T11:48:40;14.50;99.90
23746;DHT22;12053;48.878;9.632;2023-08-07T11:51:08;14.30;99.90
23746;DHT22;12053;48.878;9.632;2023-08-07T11:53:37;14.00;99.90
23746;DHT22;12053;48.878;9.632;2023-08-07T11:56:09;14.20;99.90
23746;DHT22;12053;48.878;9.632;2023-08-07T11:58:40;13.90;99.90
23746;DHT22;12053;48.878;9.632;2023-08-07T12:01:13;14.20;99.90
23746;DHT22;12053;48.878;9.632;2023-08-07T12:06:32;14.50;99.90
23746;DHT22;12053;48.878;9.632;2023-08-07T12:09:00;14.60;99.90
23746;DHT22;12053;48.878;9.632;2023-08-07T12:11:29;14.80;99.90
23746;DHT22;12053;48.878;9.632;2023-08-07T12:13:56;14.70;99.90
23746;DHT22;12053;48.878;9.632;2023-08-07T12:16:22;14.50;99.90
23746;DHT22;12053;48.878;9.632;2023-08-07T12:18:51;14.50;99.90
23746;DHT22;12053;48.878;9.632;2023-08-07T12:21:22;14.40;99.90
23746;DHT22;12053;48.878;9.632;2023-08-07T12:23:55;14.40;99.90
23746;DHT22;12053;48.878;9.632;2023-08-07T12:26:23;14.70;99.90
23746;DHT22;12053;48.878;9.632;2023-08-07T12:28:49;14.70;99.90
23746;DHT22;12053;48.878;9.632;2023-08-07T12:31:18;14.90;99.90
23746;DHT22;12053;48.878;9.632;2023-08-07T12:33:44;15.20;99.90
23746;DHT22;12053;48.878;9.632;2023-08-07T12:36:11;15.10;99.90
23746;DHT22;12053;48.878;9.632;2023-08-07T12:38:42;15.30;99.90
23746;DHT22;12053;48.878;9.632;2023-08-07T12:41:09;15.10;99.90
23746;DHT22;12053;48.878;9.632;2023-08-07T12:43:56;15.30;99.90
23746;DHT22;12053;48.878;9.632;2023-08-07T12:46:23;15.30;99.90
23746;DHT22;12053;48.878;9.632;2023-08-07T12:48:52;15.40;99.90
23746;DHT22;12053;48.878;9.632;2023-08-07T12:51:19;15.10;99.90
23746;DHT22;12053;48.878;9.632;2023-08-07T12:53:46;15.20;99.90
23746;DHT22;12053;48.878;9.632;2023-08-07T12:56:14;15.10;99.90
23746;DHT22;12053;48.878;9.632;2023-08-07T12:58:40;15.30;99.90
23746;DHT22;12053;48.878;9.632;2023-08-07T13:01:09;15.10;99.90
23746;DHT22;12053;48.878;9.632;2023-08-07T13:03:36;14.80;99.90
23746;DHT22;12053;48.878;9.632;2023-08-07T13:06:03;14.80;99.90
23746;DHT22;12053;48.878;9.632;2023-08-07T13:08:33;15.00;99.90
23746;DHT22;12053;48.878;9.632;2023-08-07T13:11:01;14.90;99.90
23746;DHT22;12053;48.878;9.632;2023-08-07T13:13:28;14.90;99.90
23746;DHT22;12053;48.878;9.632;2023-08-07T13:15:55;14.60;99.90
23746;DHT22;12053;48.878;9.632;2023-08-07T13:18:22;14.30;99.90
23746;DHT22;12053;48.878;9.632;2023-08-07T13:20:49;14.10;99.90
23746;DHT22;12053;48.878;9.632;2023-08-07T13:23:15;13.80;99.90
23746;DHT22;12053;48.878;9.632;2023-08-07T13:25:42;13.70;99.90
23746;DHT22;12053;48.878;9.632;2023-08-07T13:28:09;13.90;99.90
23746;DHT22;12053;48.878;9.632;2023-08-07T13:30:36;14.10;99.90
23746;DHT22;12053;48.878;9.632;2023-08-07T13:33:03;14.20;99.90
23746;DHT22;12053;48.878;9.632;2023-08-07T13:35:31;14.40;99.90
23746;DHT22;12053;48.878;9.632;2023-08-07T13:37:59;13.60;99.90
23746;DHT22;12053;48.878;9.632;2023-08-07T13:40:26;15.20;99.90
23746;DHT22;12053;48.878;9.632;2023-08-07T13:42:53;15.10;99.90
23746;DHT22;12053;48.878;9.632;2023-08-07T13:45:20;15.20;99.90
23746;DHT22;12053;48.878;9.632;2023-08-07T13:47:47;15.30;99.90
23746;DHT22;12053;48.878;9.632;2023-08-07T13:50:14;15.40;99.90
23746;DHT22;12053;48.878;9.632;2023-08-07T13:52:41;15.30;99.90
23746;DHT22;12053;48.878;9.632;2023-08-07T13:55:08;15.20;99.90
23746;DHT22;12053;48.878;9.632;2023-08-07T13:57:36;15.40;99.90
23746;DHT22;12053;48.878;9.632;2023-08-07T14:00:03;15.40;99.90
23746;DHT22;12053;48.878;9.632;2023-08-07T14:02:30;15.60;99.90
23746;DHT22;12053;48.878;9.632;2023-08-07T14:04:58;15.80;99.90
23746;DHT22;12053;48.878;9.632;2023-08-07T14:07:25;16.20;99.90
23746;DHT22;12053;48.878;9.632;2023-08-07T14:09:51;16.30;99.90
23746;DHT22;12053;48.878;9.632;2023-08-07T14:12:18;16.10;99.90
23746;DHT22;12053;48.878;9.632;2023-08-07T14:14:45;16.20;99.90
23746;DHT22;12053;48.878;9.632;2023-08-07T14:17:11;16.20;99.90
23746;DHT22;12053;48.878;9.632;2023-08-07T14:19:38;16.30;99.90
23746;DHT22;12053;48.878;9.632;2023-08-07T14:22:05;15.90;99.90
23746;DHT22;12053;48.878;9.632;2023-08-07T14:24:32;16.00;99.90
23746;DHT22;12053;48.878;9.632;2023-08-07T14:26:59;16.30;99.90
23746;DHT22;12053;48.878;9.632;2023-08-07T14:29:25;16.00;99.90
23746;DHT22;12053;48.878;9.632;2023-08-07T14:31:52;16.00;99.90
23746;DHT22;12053;48.878;9.632;2023-08-07T14:34:19;16.00;99.90
23746;DHT22;12053;48.878;9.632;2023-08-07T14:36:46;16.20;99.90
23746;DHT22;12053;48.878;9.632;2023-08-07T14:39:12;16.40;99.90
23746;DHT22;12053;48.878;9.632;2023-08-07T14:41:39;16.20;99.90
23746;DHT22;12053;48.878;9.632;2023-08-07T14:44:06;16.80;99.90
23746;DHT22;12053;48.878;9.632;2023-08-07T14:46:33;16.60;99.90
23746;DHT22;12053;48.878;9.632;2023-08-07T14:48:59;16.00;99.90
23746;DHT22;12053;48.878;9.632;2023-08-07T14:51:26;16.10;99.90
23746;DHT22;12053;48.878;9.632;2023-08-07T14:53:53;16.00;99.90
23746;DHT22;12053;48.878;9.632;2023-08-07T14:56:20;16.00;99.90
23746;DHT22;12053;48.878;9.632;2023-08-07T14:58:46;16.00;99.90
23746;DHT22;12053;48.878;9.632;2023-08-07T15:01:13;15.70;99.90
23746;DHT22;12053;48.878;9.632;2023-08-07T15:03:40;15.60;99.90
23746;DHT22;12053;48.878;9.632;2023-08-07T15:06:06;15.40;99.90
23746;DHT22;12053;48.878;9.632;2023-08-07T15:08:33;15.10;99.90
23746;DHT22;12053;48.878;9.632;2023-08-07T15:11:00;15.20;99.90
23746;DHT22;12053;48.878;9.632;2023-08-07T15:13:27;15.30;99.90
23746;DHT22;12053;48.878;9.632;2023-08-07T15:15:53;15.40;99.90
23746;DHT22;12053;48.878;9.632;2023-08-07T15:18:20;15.30;99.90
23746;DHT22;12053;48.878;9.632;2023-08-07T15:20:47;15.30;99.90
23746;DHT22;12053;48.878;9.632;2023-08-07T15:23:15;15.50;99.90
23746;DHT22;12053;48.878;9.632;2023-08-07T15:25:42;15.50;99.90
23746;DHT22;12053;48.878;9.632;2023-08-07T15:28:10;15.40;99.90
23746;DHT22;12053;48.878;9.632;2023-08-07T15:30:36;15.30;99.90
23746;DHT22;12053;48.878;9.632;2023-08-07T15:33:03;15.30;99.90
23746;DHT22;12053;48.878;9.632;2023-08-07T15:35:31;15.20;99.90
23746;DHT22;12053;48.878;9.632;2023-08-07T15:37:59;15.20;99.90
23746;DHT22;12053;48.878;9.632;2023-08-07T15:40:27;15.20;99.90
23746;DHT22;12053;48.878;9.632;2023-08-07T15:42:54;15.20;99.90
23746;DHT22;12053;48.878;9.632;2023-08-07T15:45:21;15.40;99.90
23746;DHT22;12053;48.878;9.632;2023-08-07T15:47:48;14.90;99.90
23746;DHT22;12053;48.878;9.632;2023-08-07T15:50:15;15.00;99.90
23746;DHT22;12053;48.878;9.632;2023-08-07T15:52:41;14.80;99.90
23746;DHT22;12053;48.878;9.632;2023-08-07T15:55:08;14.40;99.90
23746;DHT22;12053;48.878;9.632;2023-08-07T15:57:35;14.20;99.90
23746;DHT22;12053;48.878;9.632;2023-08-07T16:00:02;14.10;99.90
23746;DHT22;12053;48.878;9.632;2023-08-07T16:02:29;14.10;99.90
23746;DHT22;12053;48.878;9.632;2023-08-07T16:04:56;14.20;99.90
23746;DHT22;12053;48.878;9.632;2023-08-07T16:07:23;14.50;99.90
23746;DHT22;12053;48.878;9.632;2023-08-07T16:09:50;14.70;99.90
23746;DHT22;12053;48.878;9.632;2023-08-07T16:12:16;14.90;99.90
23746;DHT22;12053;48.878;9.632;2023-08-07T16:14:44;15.00;99.90
23746;DHT22;12053;48.878;9.632;2023-08-07T16:17:10;15.20;99.90
23746;DHT22;12053;48.878;9.632;2023-08-07T16:19:37;15.30;99.90
23746;DHT22;12053;48.878;9.632;2023-08-07T16:22:04;15.40;99.90
23746;DHT22;12053;48.878;9.632;2023-08-07T16:24:32;15.30;99.90
23746;DHT22;12053;48.878;9.632;2023-08-07T16:26:59;15.00;99.90
23746;DHT22;12053;48.878;9.632;2023-08-07T16:29:26;14.90;99.90
23746;DHT22;12053;48.878;9.632;2023-08-07T16:31:53;14.90;99.90
23746;DHT22;12053;48.878;9.632;2023-08-07T16:34:22;14.90;99.90
23746;DHT22;12053;48.878;9.632;2023-08-07T16:36:49;15.20;99.90
23746;DHT22;12053;48.878;9.632;2023-08-07T16:39:16;15.40;99.90
23746;DHT22;12053;48.878;9.632;2023-08-07T16:41:43;15.40;99.90
23746;DHT22;12053;48.878;9.632;2023-08-07T16:44:12;15.50;99.90
23746;DHT22;12053;48.878;9.632;2023-08-07T16:46:39;15.60;99.90
23746;DHT22;12053;48.878;9.632;2023-08-07T16:49:05;15.70;99.90
23746;DHT22;12053;48.878;9.632;2023-08-07T16:51:32;15.70;99.90
23746;DHT22;12053;48.878;9.632;2023-08-07T16:54:00;15.80;99.90
23746;DHT22;12053;48.878;9.632;2023-08-07T16:56:27;15.80;99.90
23746;DHT22;12053;48.878;9.632;2023-08-07T16:58:54;15.70;99.90
23746;DHT22;12053;48.878;9.632;2023-08-07T17:01:20;15.60;99.90
23746;DHT22;12053;48.878;9.632;2023-08-07T17:03:48;15.60;99.90
23746;DHT22;12053;48.878;9.632;2023-08-07T17:06:15;15.60;99.90
23746;DHT22;12053;48.878;9.632;2023-08-07T17:08:42;15.50;99.90
23746;DHT22;12053;48.878;9.632;2023-08-07T17:11:09;15.50;99.90
23746;DHT22;12053;48.878;9.632;2023-08-07T17:13:36;15.60;99.90
23746;DHT22;12053;48.878;9.632;2023-08-07T17:16:03;15.50;99.90
23746;DHT22;12053;48.878;9.632;2023-08-07T17:18:30;15.40;99.90
23746;DHT22;12053;48.878;9.632;2023-08-07T17:20:57;15.40;99.90
23746;DHT22;12053;48.878;9.632;2023-08-07T17:23:23;15.30;99.90
23746;DHT22;12053;48.878;9.632;2023-08-07T17:25:50;15.20;99.90
23746;DHT22;12053;48.878;9.632;2023-08-07T17:28:17;15.10;99.90
23746;DHT22;12053;48.878;9.632;2023-08-07T17:30:44;15.10;99.90
23746;DHT22;12053;48.878;9.632;2023-08-07T17:33:10;15.00;99.90
23746;DHT22;12053;48.878;9.632;2023-08-07T17:35:37;15.00;99.90
23746;DHT22;12053;48.878;9.632;2023-08-07T17:38:04;15.00;99.90
23746;DHT22;12053;48.878;9.632;2023-08-07T17:40:31;15.00;99.90
23746;DHT22;12053;48.878;9.632;2023-08-07T17:42:58;15.00;99.90
23746;DHT22;12053;48.878;9.632;2023-08-07T17:45:24;15.10;99.90
23746;DHT22;12053;48.878;9.632;2023-08-07T17:47:51;15.10;99.90
23746;DHT22;12053;48.878;9.632;2023-08-07T17:50:18;15.20;99.90
23746;DHT22;12053;48.878;9.632;2023-08-07T17:52:45;15.20;99.90
23746;DHT22;12053;48.878;9.632;2023-08-07T17:55:11;15.20;99.90
23746;DHT22;12053;48.878;9.632;2023-08-07T17:57:41;15.20;99.90
23746;DHT22;12053;48.878;9.632;2023-08-07T18:00:08;15.10;99.90
23746;DHT22;12053;48.878;9.632;2023-08-07T18:02:36;15.20;99.90
23746;DHT22;12053;48.878;9.632;2023-08-07T18:05:04;15.10;99.90
23746;DHT22;12053;48.878;9.632;2023-08-07T18:07:32;15.00;99.90
23746;DHT22;12053;48.878;9.632;2023-08-07T18:10:01;15.00;99.90
23746;DHT22;12053;48.878;9.632;2023-08-07T18:12:28;15.00;99.90
23746;DHT22;12053;48.878;9.632;2023-08-07T18:14:54;15.00;99.90
23746;DHT22;12053;48.878;9.632;2023-08-07T18:17:24;14.90;99.90
23746;DHT22;12053;48.878;9.632;2023-08-07T18:19:51;14.90;99.90
23746;DHT22;12053;48.878;9.632;2023-08-07T18:22:19;14.80;99.90
23746;DHT22;12053;48.878;9.632;2023-08-07T18:24:46;14.70;99.90
23746;DHT22;12053;48.878;9.632;2023-08-07T18:27:13;14.70;99.90
23746;DHT22;12053;48.878;9.632;2023-08-07T18:29:41;14.60;99.90
23746;DHT22;12053;48.878;9.632;2023-08-07T18:32:08;14.50;99.90
23746;DHT22;12053;48.878;9.632;2023-08-07T18:34:34;14.40;99.90
23746;DHT22;12053;48.878;9.632;2023-08-07T18:37:01;14.40;99.90
23746;DHT22;12053;48.878;9.632;2023-08-07T18:39:28;14.30;99.90
23746;DHT22;12053;48.878;9.632;2023-08-07T18:41:55;14.20;99.90
23746;DHT22;12053;48.878;9.632;2023-08-07T18:44:22;14.30;99.90
23746;DHT22;12053;48.878;9.632;2023-08-07T18:46:48;14.20;99.90
23746;DHT22;12053;48.878;9.632;2023-08-07T18:49:16;14.10;99.90
23746;DHT22;12053;48.878;9.632;2023-08-07T18:51:42;14.10;99.90
23746;DHT22;12053;48.878;9.632;2023-08-07T18:54:13;14.00;99.90
23746;DHT22;12053;48.878;9.632;2023-08-07T18:56:40;14.00;99.90
23746;DHT22;12053;48.878;9.632;2023-08-07T18:59:07;13.90;99.90
23746;DHT22;12053;48.878;9.632;2023-08-07T19:01:34;13.90;99.90
23746;DHT22;12053;48.878;9.632;2023-08-07T19:04:01;13.80;99.90
23746;DHT22;12053;48.878;9.632;2023-08-07T19:06:28;13.90;99.90
23746;DHT22;12053;48.878;9.632;2023-08-07T19:08:58;13.70;99.90
23746;DHT22;12053;48.878;9.632;2023-08-07T19:11:24;13.70;99.90
23746;DHT22;12053;48.878;9.632;2023-08-07T19:13:55;13.70;99.90
23746;DHT22;12053;48.878;9.632;2023-08-07T19:40:56;13.70;99.90
23746;DHT22;12053;48.878;9.632;2023-08-07T19:43:23;13.30;99.90
23746;DHT22;12053;48.878;9.632;2023-08-07T19:45:50;13.20;99.90
23746;DHT22;12053;48.878;9.632;2023-08-07T19:48:16;13.10;99.90
23746;DHT22;12053;48.878;9.632;2023-08-07T19:50:44;13.20;99.90
23746;DHT22;12053;48.878;9.632;2023-08-07T19:53:11;13.10;99.90
23746;DHT22;12053;48.878;9.632;2023-08-07T19:55:38;13.20;99.90
23746;DHT22;12053;48.878;9.632;2023-08-07T19:58:04;13.20;99.90
23746;DHT22;12053;48.878;9.632;2023-08-07T20:00:31;13.20;99.90
23746;DHT22;12053;48.878;9.632;2023-08-07T20:02:58;13.10;99.90
23746;DHT22;12053;48.878;9.632;2023-08-07T20:05:25;13.20;99.90
23746;DHT22;12053;48.878;9.632;2023-08-07T20:07:52;13.20;99.90
23746;DHT22;12053;48.878;9.632;2023-08-07T20:10:20;13.10;99.90
23746;DHT22;12053;48.878;9.632;2023-08-07T20:12:51;13.10;99.90
23746;DHT22;12053;48.878;9.632;2023-08-07T20:15:24;13.10;99.90
23746;DHT22;12053;48.878;9.632;2023-08-07T20:17:56;13.10;99.90
23746;DHT22;12053;48.878;9.632;2023-08-07T20:20:23;13.00;99.90
23746;DHT22;12053;48.878;9.632;2023-08-07T20:22:49;13.00;99.90
23746;DHT22;12053;48.878;9.632;2023-08-07T20:25:16;13.00;99.90
23746;DHT22;12053;48.878;9.632;2023-08-07T20:27:44;12.90;99.90
23746;DHT22;12053;48.878;9.632;2023-08-07T20:30:11;13.00;99.90
23746;DHT22;12053;48.878;9.632;2023-08-07T20:32:37;12.90;99.90
23746;DHT22;12053;48.878;9.632;2023-08-07T20:35:04;12.90;99.90
23746;DHT22;12053;48.878;9.632;2023-08-07T20:37:31;12.90;99.90
23746;DHT22;12053;48.878;9.632;2023-08-07T20:39:58;12.80;99.90
23746;DHT22;12053;48.878;9.632;2023-08-07T20:42:25;12.80;99.90
23746;DHT22;12053;48.878;9.632;2023-08-07T20:44:52;12.70;99.90
23746;DHT22;12053;48.878;9.632;2023-08-07T20:47:18;12.70;99.90
23746;DHT22;12053;48.878;9.632;2023-08-07T20:49:45;12.70;99.90
23746;DHT22;12053;48.878;9.632;2023-08-07T20:52:12;12.70;99.90
23746;DHT22;12053;48.878;9.632;2023-08-07T20:54:39;12.70;99.90
23746;DHT22;12053;48.878;9.632;2023-08-07T20:57:06;12.70;99.90
23746;DHT22;12053;48.878;9.632;2023-08-07T20:59:32;12.60;99.90
23746;DHT22;12053;48.878;9.632;2023-08-07T21:01:59;12.50;99.90
23746;DHT22;12053;48.878;9.632;2023-08-07T21:04:27;12.30;99.90
23746;DHT22;12053;48.878;9.632;2023-08-07T21:06:54;12.30;99.90
23746;DHT22;12053;48.878;9.632;2023-08-07T21:09:21;12.30;99.90
23746;DHT22;12053;48.878;9.632;2023-08-07T21:11:48;12.20;99.90
23746;DHT22;12053;48.878;9.632;2023-08-07T21:14:14;12.20;99.90
23746;DHT22;12053;48.878;9.632;2023-08-07T21:16:41;12.10;99.90
23746;DHT22;12053;48.878;9.632;2023-08-07T21:19:11;12.10;99.90
23746;DHT22;12053;48.878;9.632;2023-08-07T21:21:38;12.10;99.90
23746;DHT22;12053;48.878;9.632;2023-08-07T21:24:06;12.10;99.90
23746;DHT22;12053;48.878;9.632;2023-08-07T21:26:39;12.00;99.90
23746;DHT22;12053;48.878;9.632;2023-08-07T21:29:05;11.90;99.90
23746;DHT22;12053;48.878;9.632;2023-08-07T21:31:32;11.90;99.90
23746;DHT22;12053;48.878;9.632;2023-08-07T21:33:59;11.80;99.90
23746;DHT22;12053;48.878;9.632;2023-08-07T21:36:26;11.80;99.90
23746;DHT22;12053;48.878;9.632;2023-08-07T21:38:53;11.70;99.90
23746;DHT22;12053;48.878;9.632;2023-08-07T21:41:19;11.70;99.90
23746;DHT22;12053;48.878;9.632;2023-08-07T21:43:46;11.70;99.90
23746;DHT22;12053;48.878;9.632;2023-08-07T21:46:13;11.70;99.90
23746;DHT22;12053;48.878;9.632;2023-08-07T21:48:40;11.60;99.90
23746;DHT22;12053;48.878;9.632;2023-08-07T21:51:06;11.60;99.90
23746;DHT22;12053;48.878;9.632;2023-08-07T21:53:33;11.60;99.90
23746;DHT22;12053;48.878;9.632;2023-08-07T21:56:00;11.70;99.90
23746;DHT22;12053;48.878;9.632;2023-08-07T21:58:26;11.90;99.90
23746;DHT22;12053;48.878;9.632;2023-08-07T22:00:53;11.90;99.90
23746;DHT22;12053;48.878;9.632;2023-08-07T22:20:32;12.00;99.90
23746;DHT22;12053;48.878;9.632;2023-08-07T22:22:59;12.10;99.90
23746;DHT22;12053;48.878;9.632;2023-08-07T22:25:26;12.10;99.90
23746;DHT22;12053;48.878;9.632;2023-08-07T22:27:52;12.00;99.90
23746;DHT22;12053;48.878;9.632;2023-08-07T22:30:19;12.10;99.90
23746;DHT22;12053;48.878;9.632;2023-08-07T22:32:48;12.10;99.90
23746;DHT22;12053;48.878;9.632;2023-08-07T22:35:17;12.10;99.90
23746;DHT22;12053;48.878;9.632;2023-08-07T22:37:44;12.10;99.90
23746;DHT22;12053;48.878;9.632;2023-08-07T22:40:11;12.10;99.90
23746;DHT22;12053;48.878;9.632;2023-08-07T22:42:38;12.10;99.90
23746;DHT22;12053;48.878;9.632;2023-08-07T22:45:05;12.20;99.90
23746;DHT22;12053;48.878;9.632;2023-08-07T22:47:32;12.20;99.90
23746;DHT22;12053;48.878;9.632;2023-08-07T22:49:59;12.10;99.90
23746;DHT22;12053;48.878;9.632;2023-08-07T22:52:25;12.20;99.90
23746;DHT22;12053;48.878;9.632;2023-08-07T22:54:52;12.20;99.90
23746;DHT22;12053;48.878;9.632;2023-08-07T22:57:19;12.20;99.90
23746;DHT22;12053;48.878;9.632;2023-08-07T22:59:45;12.20;99.90
23746;DHT22;12053;48.878;9.632;2023-08-07T23:02:12;12.20;99.90
23746;DHT22;12053;48.878;9.632;2023-08-07T23:04:39;12.30;99.90
23746;DHT22;12053;48.878;9.632;2023-08-07T23:07:05;12.20;99.90
23746;DHT22;12053;48.878;9.632;2023-08-07T23:09:32;12.10;99.90
23746;DHT22;12053;48.878;9.632;2023-08-07T23:11:59;12.10;99.90
23746;DHT22;12053;48.878;9.632;2023-08-07T23:14:26;12.00;99.90
23746;DHT22;12053;48.878;9.632;2023-08-07T23:16:53;12.00;99.90
23746;DHT22;12053;48.878;9.632;2023-08-07T23:19:20;11.90;99.90
23746;DHT22;12053;48.878;9.632;2023-08-07T23:21:46;11.90;99.90
23746;DHT22;12053;48.878;9.632;2023-08-07T23:24:13;11.90;99.90
23746;DHT22;12053;48.878;9.632;2023-08-07T23:26:40;11.90;99.90
23746;DHT22;12053;48.878;9.632;2023-08-07T23:29:07;11.90;99.90
23746;DHT22;12053;48.878;9.632;2023-08-07T23:31:33;11.90;99.90
23746;DHT22;12053;48.878;9.632;2023-08-07T23:34:03;11.90;99.90
23746;DHT22;12053;48.878;9.632;2023-08-07T23:36:29;11.90;99.90
23746;DHT22;12053;48.878;9.632;2023-08-07T23:38:56;11.90;99.90
23746;DHT22;12053;48.878;9.632;2023-08-07T23:41:23;11.80;99.90
23746;DHT22;12053;48.878;9.632;2023-08-07T23:43:50;11.90;99.90
23746;DHT22;12053;48.878;9.632;2023-08-07T23:46:16;11.90;99.90
23746;DHT22;12053;48.878;9.632;2023-08-07T23:48:43;11.90;99.90
23746;DHT22;12053;48.878;9.632;2023-08-07T23:51:10;11.90;99.90
23746;DHT22;12053;48.878;9.632;2023-08-07T23:53:37;11.90;99.90
23746;DHT22;12053;48.878;9.632;2023-08-07T23:56:03;11.90;99.90
23746;DHT22;12053;48.878;9.632;2023-08-07T23:58:30;11.80;99.90
